Obrien Ridge

Elevation
7889ft
Jump to table bottom
Date/Time Wind Direction Wind Speed knots Wind Gust knots RH % Accumulated Precip Inches Air Temp Fahrenheit
2022-07-02 08:22 SE 2 5 49 0 56
2022-07-02 07:22 0 3 66 0 50
2022-07-02 06:22 0 1 63 0 48
2022-07-02 05:22 0 1 58 0 49
2022-07-02 04:22 0 1 59 0 49
2022-07-02 03:22 0 0 64 0 51
2022-07-02 02:22 0 1 71 0 51
2022-07-02 01:22 0 2 58 0 53
2022-07-02 00:22 0 2 61 0 52
2022-07-01 23:22 0 3 63 0 53
2022-07-01 22:22 0 6 54 0 55
2022-07-01 21:22 SSE 1 5 42 0 60
2022-07-01 20:22 NW 1 4 35 0 62
2022-07-01 19:22 NW 1 5 29 0 68
2022-07-01 18:22 NW 2 5 28 0 68
2022-07-01 17:22 ESE 2 8 27 0 66
2022-07-01 16:22 WNW 2 10 26 0 70
2022-07-01 15:22 WNW 3 10 25 0 69
2022-07-01 14:22 WNW 3 13 23 0 68
2022-07-01 13:22 S 3 10 30 0 65
2022-07-01 12:22 WSW 2 6 31 0 65
2022-07-01 11:22 S 2 6 33 0 62
2022-07-01 10:22 WSW 2 6 34 0 60
2022-07-01 09:22 SE 3 5 33 0 58
2022-07-01 08:22 SE 1 6 41 0 54
2022-07-01 07:22 ESE 3 6 39 0 53
2022-07-01 06:22 SE 3 4 39 0 52
2022-07-01 05:22 0 2 48 0 47
2022-07-01 04:22 0 4 48 0 47
2022-07-01 03:22 SSE 1 3 55 0 46
2022-07-01 02:22 SE 3 3 51 0 48
2022-07-01 01:22 ESE 2 4 53 0 48
2022-07-01 00:22 ESE 2 3 48 0 49
2022-06-30 23:22 ESE 2 5 49 0 50
2022-06-30 22:22 E 2 4 46 0 51
2022-06-30 21:22 0 5 48 0 53
2022-06-30 20:22 ESE 1 7 35 0 57
2022-06-30 19:22 SSE 1 8 25 0 62
2022-06-30 18:22 NNW 3 8 24 0 65
2022-06-30 17:22 WNW 3 9 25 0 65
2022-06-30 16:22 SW 2 12 24 0 63
2022-06-30 15:22 WNW 3 10 15 0 63
2022-06-30 14:22 NW 3 10 19 0 62
2022-06-30 13:22 WNW 3 9 26 0 59
2022-06-30 12:22 WNW 2 7 33 0 58
2022-06-30 11:22 SSE 2 8 33 0 55
2022-06-30 10:22 SSW 2 7 30 0 54
2022-06-30 09:22 WSW 1 4 32 0 51
2022-06-30 08:22 WNW 2 3 47 0 46
2022-06-30 07:22 0 3 56 0 43